sensor_id;sensor_type;location;lat;lon;timestamp;temperature;humidity
22714;DHT22;11524;50.846;4.326;2023-03-14T00:00:30;19.20;61.90
22714;DHT22;11524;50.846;4.326;2023-03-14T00:02:56;19.20;61.60
22714;DHT22;11524;50.846;4.326;2023-03-14T00:05:22;19.10;61.90
22714;DHT22;11524;50.846;4.326;2023-03-14T00:07:47;19.10;60.70
22714;DHT22;11524;50.846;4.326;2023-03-14T00:10:14;19.10;61.80
22714;DHT22;11524;50.846;4.326;2023-03-14T00:12:43;19.10;60.90
22714;DHT22;11524;50.846;4.326;2023-03-14T00:15:10;19.10;60.90
22714;DHT22;11524;50.846;4.326;2023-03-14T00:17:36;19.10;61.60
22714;DHT22;11524;50.846;4.326;2023-03-14T00:20:06;19.10;62.20
22714;DHT22;11524;50.846;4.326;2023-03-14T00:22:36;19.10;61.50
22714;DHT22;11524;50.846;4.326;2023-03-14T00:25:01;19.10;61.00
22714;DHT22;11524;50.846;4.326;2023-03-14T00:27:27;19.10;60.60
22714;DHT22;11524;50.846;4.326;2023-03-14T00:29:53;19.10;60.80
22714;DHT22;11524;50.846;4.326;2023-03-14T00:32:19;19.10;62.20
22714;DHT22;11524;50.846;4.326;2023-03-14T00:34:44;19.10;61.30
22714;DHT22;11524;50.846;4.326;2023-03-14T00:37:10;19.10;62.50
22714;DHT22;11524;50.846;4.326;2023-03-14T00:39:35;19.10;61.90
22714;DHT22;11524;50.846;4.326;2023-03-14T00:42:01;19.10;62.30
22714;DHT22;11524;50.846;4.326;2023-03-14T00:44:26;19.10;62.40
22714;DHT22;11524;50.846;4.326;2023-03-14T00:46:52;19.00;62.80
22714;DHT22;11524;50.846;4.326;2023-03-14T00:49:18;19.10;62.70
22714;DHT22;11524;50.846;4.326;2023-03-14T00:51:43;19.10;62.70
22714;DHT22;11524;50.846;4.326;2023-03-14T00:54:09;19.10;62.50
22714;DHT22;11524;50.846;4.326;2023-03-14T00:56:34;19.00;62.70
22714;DHT22;11524;50.846;4.326;2023-03-14T00:59:00;19.00;62.80
22714;DHT22;11524;50.846;4.326;2023-03-14T01:01:26;19.10;63.60
22714;DHT22;11524;50.846;4.326;2023-03-14T01:03:52;19.00;63.60
22714;DHT22;11524;50.846;4.326;2023-03-14T01:06:24;19.00;63.30
22714;DHT22;11524;50.846;4.326;2023-03-14T01:08:50;19.00;64.00
22714;DHT22;11524;50.846;4.326;2023-03-14T01:11:27;19.00;64.10
22714;DHT22;11524;50.846;4.326;2023-03-14T01:13:53;19.00;63.90
22714;DHT22;11524;50.846;4.326;2023-03-14T01:16:20;19.00;63.50
22714;DHT22;11524;50.846;4.326;2023-03-14T01:18:47;19.00;63.90
22714;DHT22;11524;50.846;4.326;2023-03-14T01:21:21;19.00;64.30
22714;DHT22;11524;50.846;4.326;2023-03-14T01:23:48;19.00;64.70
22714;DHT22;11524;50.846;4.326;2023-03-14T01:26:17;19.00;64.80
22714;DHT22;11524;50.846;4.326;2023-03-14T01:28:45;19.00;64.10
22714;DHT22;11524;50.846;4.326;2023-03-14T01:31:11;19.00;64.00
22714;DHT22;11524;50.846;4.326;2023-03-14T01:33:37;19.00;65.00
22714;DHT22;11524;50.846;4.326;2023-03-14T01:36:03;19.00;63.10
22714;DHT22;11524;50.846;4.326;2023-03-14T01:38:30;19.00;63.90
22714;DHT22;11524;50.846;4.326;2023-03-14T01:40:56;19.00;63.80
22714;DHT22;11524;50.846;4.326;2023-03-14T01:43:22;19.00;62.90
22714;DHT22;11524;50.846;4.326;2023-03-14T01:51:02;19.00;63.30
22714;DHT22;11524;50.846;4.326;2023-03-14T01:53:30;19.00;63.60
22714;DHT22;11524;50.846;4.326;2023-03-14T01:55:57;19.00;62.90
22714;DHT22;11524;50.846;4.326;2023-03-14T01:58:24;19.00;63.40
22714;DHT22;11524;50.846;4.326;2023-03-14T02:00:53;19.00;63.50
22714;DHT22;11524;50.846;4.326;2023-03-14T02:03:20;18.90;59.20
22714;DHT22;11524;50.846;4.326;2023-03-14T02:05:49;18.90;58.90
22714;DHT22;11524;50.846;4.326;2023-03-14T02:08:18;18.90;59.20
22714;DHT22;11524;50.846;4.326;2023-03-14T02:10:47;18.80;59.30
22714;DHT22;11524;50.846;4.326;2023-03-14T02:13:15;18.80;59.10
22714;DHT22;11524;50.846;4.326;2023-03-14T02:15:41;18.80;59.30
22714;DHT22;11524;50.846;4.326;2023-03-14T02:18:08;18.80;59.30
22714;DHT22;11524;50.846;4.326;2023-03-14T02:20:47;18.80;59.80
22714;DHT22;11524;50.846;4.326;2023-03-14T02:23:26;18.80;59.60
22714;DHT22;11524;50.846;4.326;2023-03-14T02:29:02;18.70;58.90
22714;DHT22;11524;50.846;4.326;2023-03-14T02:31:28;18.70;59.70
22714;DHT22;11524;50.846;4.326;2023-03-14T02:33:55;18.70;59.40
22714;DHT22;11524;50.846;4.326;2023-03-14T02:36:22;18.70;59.40
22714;DHT22;11524;50.846;4.326;2023-03-14T02:39:09;18.70;59.60
22714;DHT22;11524;50.846;4.326;2023-03-14T02:41:37;18.60;59.30
22714;DHT22;11524;50.846;4.326;2023-03-14T02:44:02;18.60;59.60
22714;DHT22;11524;50.846;4.326;2023-03-14T02:46:28;18.60;59.40
22714;DHT22;11524;50.846;4.326;2023-03-14T02:51:26;18.60;59.40
22714;DHT22;11524;50.846;4.326;2023-03-14T02:53:53;18.60;59.60
22714;DHT22;11524;50.846;4.326;2023-03-14T02:56:18;18.60;59.60
22714;DHT22;11524;50.846;4.326;2023-03-14T02:58:44;18.60;59.60
22714;DHT22;11524;50.846;4.326;2023-03-14T03:01:09;18.60;59.50
22714;DHT22;11524;50.846;4.326;2023-03-14T03:03:35;18.50;59.60
22714;DHT22;11524;50.846;4.326;2023-03-14T03:06:01;18.60;59.60
22714;DHT22;11524;50.846;4.326;2023-03-14T03:08:27;18.50;59.40
22714;DHT22;11524;50.846;4.326;2023-03-14T03:10:54;18.50;59.40
22714;DHT22;11524;50.846;4.326;2023-03-14T03:13:20;18.60;59.50
22714;DHT22;11524;50.846;4.326;2023-03-14T03:15:45;18.50;59.70
22714;DHT22;11524;50.846;4.326;2023-03-14T03:18:12;18.50;59.60
22714;DHT22;11524;50.846;4.326;2023-03-14T03:20:37;18.50;59.70
22714;DHT22;11524;50.846;4.326;2023-03-14T03:23:03;18.50;59.40
22714;DHT22;11524;50.846;4.326;2023-03-14T03:25:29;18.50;59.50
22714;DHT22;11524;50.846;4.326;2023-03-14T03:27:56;18.50;59.80
22714;DHT22;11524;50.846;4.326;2023-03-14T03:30:22;18.50;59.80
22714;DHT22;11524;50.846;4.326;2023-03-14T03:32:47;18.50;60.00
22714;DHT22;11524;50.846;4.326;2023-03-14T03:35:13;18.50;59.70
22714;DHT22;11524;50.846;4.326;2023-03-14T03:37:39;18.50;59.70
22714;DHT22;11524;50.846;4.326;2023-03-14T03:40:05;18.50;60.00
22714;DHT22;11524;50.846;4.326;2023-03-14T03:42:32;18.50;59.70
22714;DHT22;11524;50.846;4.326;2023-03-14T03:44:59;18.50;60.00
22714;DHT22;11524;50.846;4.326;2023-03-14T03:47:24;18.50;60.00
22714;DHT22;11524;50.846;4.326;2023-03-14T03:49:50;18.40;59.90
22714;DHT22;11524;50.846;4.326;2023-03-14T03:52:16;18.50;59.90
22714;DHT22;11524;50.846;4.326;2023-03-14T03:54:41;18.40;60.00
22714;DHT22;11524;50.846;4.326;2023-03-14T03:57:07;18.40;60.30
22714;DHT22;11524;50.846;4.326;2023-03-14T03:59:32;18.40;59.90
22714;DHT22;11524;50.846;4.326;2023-03-14T04:01:58;18.40;60.30
22714;DHT22;11524;50.846;4.326;2023-03-14T04:04:24;18.40;59.80
22714;DHT22;11524;50.846;4.326;2023-03-14T04:06:49;18.40;60.00
22714;DHT22;11524;50.846;4.326;2023-03-14T04:09:15;18.40;59.90
22714;DHT22;11524;50.846;4.326;2023-03-14T04:11:40;18.40;59.80
22714;DHT22;11524;50.846;4.326;2023-03-14T04:14:07;18.40;60.00
22714;DHT22;11524;50.846;4.326;2023-03-14T04:16:33;18.40;60.00
22714;DHT22;11524;50.846;4.326;2023-03-14T04:19:00;18.40;60.00
22714;DHT22;11524;50.846;4.326;2023-03-14T04:21:25;18.30;60.50
22714;DHT22;11524;50.846;4.326;2023-03-14T04:23:51;18.40;59.70
22714;DHT22;11524;50.846;4.326;2023-03-14T04:26:17;18.40;60.00
22714;DHT22;11524;50.846;4.326;2023-03-14T04:28:43;18.40;60.30
22714;DHT22;11524;50.846;4.326;2023-03-14T04:31:09;18.40;60.10
22714;DHT22;11524;50.846;4.326;2023-03-14T04:33:35;18.30;60.00
22714;DHT22;11524;50.846;4.326;2023-03-14T04:36:03;18.40;59.90
22714;DHT22;11524;50.846;4.326;2023-03-14T04:38:32;18.30;60.00
22714;DHT22;11524;50.846;4.326;2023-03-14T04:40:58;18.30;60.30
22714;DHT22;11524;50.846;4.326;2023-03-14T04:43:24;18.30;60.10
22714;DHT22;11524;50.846;4.326;2023-03-14T04:45:52;18.40;60.90
22714;DHT22;11524;50.846;4.326;2023-03-14T04:48:18;18.30;60.80
22714;DHT22;11524;50.846;4.326;2023-03-14T04:50:48;18.30;60.60
22714;DHT22;11524;50.846;4.326;2023-03-14T04:53:14;18.30;61.00
22714;DHT22;11524;50.846;4.326;2023-03-14T04:55:40;18.30;61.30
22714;DHT22;11524;50.846;4.326;2023-03-14T04:58:06;18.30;61.60
22714;DHT22;11524;50.846;4.326;2023-03-14T05:00:31;18.30;61.30
22714;DHT22;11524;50.846;4.326;2023-03-14T05:02:57;18.30;61.50
22714;DHT22;11524;50.846;4.326;2023-03-14T05:05:23;18.30;61.10
22714;DHT22;11524;50.846;4.326;2023-03-14T05:07:48;18.30;61.10
22714;DHT22;11524;50.846;4.326;2023-03-14T05:10:15;18.30;61.30
22714;DHT22;11524;50.846;4.326;2023-03-14T05:12:40;18.30;61.50
22714;DHT22;11524;50.846;4.326;2023-03-14T05:15:06;18.30;61.10
22714;DHT22;11524;50.846;4.326;2023-03-14T05:17:32;18.30;61.10
22714;DHT22;11524;50.846;4.326;2023-03-14T05:19:58;18.30;61.50
22714;DHT22;11524;50.846;4.326;2023-03-14T05:22:24;18.30;61.40
22714;DHT22;11524;50.846;4.326;2023-03-14T05:24:49;18.30;61.40
22714;DHT22;11524;50.846;4.326;2023-03-14T05:27:15;18.30;61.40
22714;DHT22;11524;50.846;4.326;2023-03-14T05:29:41;18.30;61.70
22714;DHT22;11524;50.846;4.326;2023-03-14T05:32:06;18.30;61.90
22714;DHT22;11524;50.846;4.326;2023-03-14T05:34:32;18.30;61.90
22714;DHT22;11524;50.846;4.326;2023-03-14T05:36:57;18.30;62.10
22714;DHT22;11524;50.846;4.326;2023-03-14T05:39:23;18.20;61.80
22714;DHT22;11524;50.846;4.326;2023-03-14T05:41:49;18.20;61.40
22714;DHT22;11524;50.846;4.326;2023-03-14T05:44:15;18.30;61.70
22714;DHT22;11524;50.846;4.326;2023-03-14T05:46:41;18.30;61.40
22714;DHT22;11524;50.846;4.326;2023-03-14T05:49:06;18.20;61.20
22714;DHT22;11524;50.846;4.326;2023-03-14T05:51:32;18.30;61.80
22714;DHT22;11524;50.846;4.326;2023-03-14T05:53:57;18.30;62.00
22714;DHT22;11524;50.846;4.326;2023-03-14T05:56:23;18.30;62.10
22714;DHT22;11524;50.846;4.326;2023-03-14T05:58:49;18.20;62.00
22714;DHT22;11524;50.846;4.326;2023-03-14T06:01:14;18.30;62.20
22714;DHT22;11524;50.846;4.326;2023-03-14T06:03:40;18.30;62.10
22714;DHT22;11524;50.846;4.326;2023-03-14T06:06:06;18.20;62.10
22714;DHT22;11524;50.846;4.326;2023-03-14T06:08:31;18.20;61.80
22714;DHT22;11524;50.846;4.326;2023-03-14T06:10:57;18.30;61.90
22714;DHT22;11524;50.846;4.326;2023-03-14T06:13:23;18.40;62.20
22714;DHT22;11524;50.846;4.326;2023-03-14T06:15:49;18.30;65.10
22714;DHT22;11524;50.846;4.326;2023-03-14T06:18:14;18.60;63.60
22714;DHT22;11524;50.846;4.326;2023-03-14T06:20:40;18.80;61.80
22714;DHT22;11524;50.846;4.326;2023-03-14T06:23:07;18.70;60.80
22714;DHT22;11524;50.846;4.326;2023-03-14T06:25:33;18.60;60.30
22714;DHT22;11524;50.846;4.326;2023-03-14T06:27:59;18.40;61.10
22714;DHT22;11524;50.846;4.326;2023-03-14T06:30:25;18.50;61.00
22714;DHT22;11524;50.846;4.326;2023-03-14T06:32:51;18.70;60.20
22714;DHT22;11524;50.846;4.326;2023-03-14T06:35:16;18.60;59.00
22714;DHT22;11524;50.846;4.326;2023-03-14T06:37:42;18.20;61.30
22714;DHT22;11524;50.846;4.326;2023-03-14T06:40:09;18.30;61.40
22714;DHT22;11524;50.846;4.326;2023-03-14T06:42:42;18.40;58.80
22714;DHT22;11524;50.846;4.326;2023-03-14T06:45:09;18.50;58.30
22714;DHT22;11524;50.846;4.326;2023-03-14T06:47:35;18.60;58.10
22714;DHT22;11524;50.846;4.326;2023-03-14T06:50:00;18.70;57.60
22714;DHT22;11524;50.846;4.326;2023-03-14T06:52:26;18.80;57.10
22714;DHT22;11524;50.846;4.326;2023-03-14T06:54:52;18.90;57.40
22714;DHT22;11524;50.846;4.326;2023-03-14T06:57:17;18.90;56.20
22714;DHT22;11524;50.846;4.326;2023-03-14T06:59:43;19.00;55.90
22714;DHT22;11524;50.846;4.326;2023-03-14T07:02:12;19.10;55.60
22714;DHT22;11524;50.846;4.326;2023-03-14T07:04:38;19.10;55.60
22714;DHT22;11524;50.846;4.326;2023-03-14T07:07:04;19.10;55.40
22714;DHT22;11524;50.846;4.326;2023-03-14T07:09:32;19.10;55.20
22714;DHT22;11524;50.846;4.326;2023-03-14T07:11:57;19.20;55.20
22714;DHT22;11524;50.846;4.326;2023-03-14T07:14:23;19.20;55.70
22714;DHT22;11524;50.846;4.326;2023-03-14T07:16:49;19.20;55.40
22714;DHT22;11524;50.846;4.326;2023-03-14T07:19:14;19.20;55.20
22714;DHT22;11524;50.846;4.326;2023-03-14T07:21:40;19.20;55.30
22714;DHT22;11524;50.846;4.326;2023-03-14T07:24:06;19.20;55.50
22714;DHT22;11524;50.846;4.326;2023-03-14T07:26:31;19.20;55.50
22714;DHT22;11524;50.846;4.326;2023-03-14T07:28:57;19.20;55.40
22714;DHT22;11524;50.846;4.326;2023-03-14T07:31:23;19.20;55.10
22714;DHT22;11524;50.846;4.326;2023-03-14T07:33:48;19.20;55.10
22714;DHT22;11524;50.846;4.326;2023-03-14T07:36:14;19.20;55.40
22714;DHT22;11524;50.846;4.326;2023-03-14T07:38:40;19.10;56.60
22714;DHT22;11524;50.846;4.326;2023-03-14T07:41:07;19.10;55.60
22714;DHT22;11524;50.846;4.326;2023-03-14T07:43:33;19.10;55.40
22714;DHT22;11524;50.846;4.326;2023-03-14T07:45:59;19.20;55.60
22714;DHT22;11524;50.846;4.326;2023-03-14T07:48:24;19.20;55.30
22714;DHT22;11524;50.846;4.326;2023-03-14T07:50:52;19.20;54.90
22714;DHT22;11524;50.846;4.326;2023-03-14T07:53:19;19.20;54.80
22714;DHT22;11524;50.846;4.326;2023-03-14T07:55:45;19.40;54.80
22714;DHT22;11524;50.846;4.326;2023-03-14T07:58:12;19.30;54.60
22714;DHT22;11524;50.846;4.326;2023-03-14T08:00:38;19.30;54.30
22714;DHT22;11524;50.846;4.326;2023-03-14T08:03:04;19.30;54.50
22714;DHT22;11524;50.846;4.326;2023-03-14T08:05:29;19.30;54.20
22714;DHT22;11524;50.846;4.326;2023-03-14T08:07:55;19.30;54.20
22714;DHT22;11524;50.846;4.326;2023-03-14T08:10:21;19.30;54.00
22714;DHT22;11524;50.846;4.326;2023-03-14T08:12:50;19.30;54.20
22714;DHT22;11524;50.846;4.326;2023-03-14T08:15:16;19.30;54.10
22714;DHT22;11524;50.846;4.326;2023-03-14T08:17:42;19.30;54.20
22714;DHT22;11524;50.846;4.326;2023-03-14T08:20:08;19.30;54.10
22714;DHT22;11524;50.846;4.326;2023-03-14T08:22:36;19.30;54.00
22714;DHT22;11524;50.846;4.326;2023-03-14T08:25:01;19.20;54.00
22714;DHT22;11524;50.846;4.326;2023-03-14T08:27:27;19.20;54.00
22714;DHT22;11524;50.846;4.326;2023-03-14T08:29:52;19.30;54.10
22714;DHT22;11524;50.846;4.326;2023-03-14T08:32:18;19.30;53.70
22714;DHT22;11524;50.846;4.326;2023-03-14T08:34:45;19.30;53.80
22714;DHT22;11524;50.846;4.326;2023-03-14T08:37:11;19.20;53.50
22714;DHT22;11524;50.846;4.326;2023-03-14T08:39:37;19.20;53.70
22714;DHT22;11524;50.846;4.326;2023-03-14T08:42:03;19.30;53.60
22714;DHT22;11524;50.846;4.326;2023-03-14T08:44:28;19.30;53.30
22714;DHT22;11524;50.846;4.326;2023-03-14T08:46:54;19.20;53.20
22714;DHT22;11524;50.846;4.326;2023-03-14T08:49:20;19.20;53.30
22714;DHT22;11524;50.846;4.326;2023-03-14T08:51:46;19.20;53.20
22714;DHT22;11524;50.846;4.326;2023-03-14T08:54:11;19.20;53.20
22714;DHT22;11524;50.846;4.326;2023-03-14T08:56:37;19.20;53.20
22714;DHT22;11524;50.846;4.326;2023-03-14T08:59:06;19.20;53.00
22714;DHT22;11524;50.846;4.326;2023-03-14T09:01:33;19.10;52.90
22714;DHT22;11524;50.846;4.326;2023-03-14T09:03:59;19.20;53.20
22714;DHT22;11524;50.846;4.326;2023-03-14T09:06:24;19.20;53.60
22714;DHT22;11524;50.846;4.326;2023-03-14T09:08:50;19.20;53.00
22714;DHT22;11524;50.846;4.326;2023-03-14T09:11:16;19.20;52.80
22714;DHT22;11524;50.846;4.326;2023-03-14T09:13:46;19.20;52.60
22714;DHT22;11524;50.846;4.326;2023-03-14T09:16:12;19.20;53.00
22714;DHT22;11524;50.846;4.326;2023-03-14T09:18:37;19.20;52.60
22714;DHT22;11524;50.846;4.326;2023-03-14T09:21:03;19.20;52.50
22714;DHT22;11524;50.846;4.326;2023-03-14T09:23:29;19.20;52.50
22714;DHT22;11524;50.846;4.326;2023-03-14T09:25:56;19.20;52.50
22714;DHT22;11524;50.846;4.326;2023-03-14T09:28:22;19.10;52.40
22714;DHT22;11524;50.846;4.326;2023-03-14T09:30:47;19.20;52.30
22714;DHT22;11524;50.846;4.326;2023-03-14T09:33:15;19.20;52.30
22714;DHT22;11524;50.846;4.326;2023-03-14T09:35:41;19.20;52.50
22714;DHT22;11524;50.846;4.326;2023-03-14T09:38:06;19.20;52.40
22714;DHT22;11524;50.846;4.326;2023-03-14T09:40:35;19.20;52.20
22714;DHT22;11524;50.846;4.326;2023-03-14T09:43:01;19.20;52.10
22714;DHT22;11524;50.846;4.326;2023-03-14T09:45:33;19.20;52.00
22714;DHT22;11524;50.846;4.326;2023-03-14T09:48:00;19.20;52.40
22714;DHT22;11524;50.846;4.326;2023-03-14T09:50:35;19.20;52.00
22714;DHT22;11524;50.846;4.326;2023-03-14T09:53:04;19.10;51.90
22714;DHT22;11524;50.846;4.326;2023-03-14T09:55:31;19.20;52.10
22714;DHT22;11524;50.846;4.326;2023-03-14T09:58:01;19.10;51.70
22714;DHT22;11524;50.846;4.326;2023-03-14T10:00:29;19.10;51.80
22714;DHT22;11524;50.846;4.326;2023-03-14T10:05:45;19.20;51.70
22714;DHT22;11524;50.846;4.326;2023-03-14T10:08:12;19.20;51.70
22714;DHT22;11524;50.846;4.326;2023-03-14T10:10:38;19.10;51.70
22714;DHT22;11524;50.846;4.326;2023-03-14T10:13:17;19.10;51.50
22714;DHT22;11524;50.846;4.326;2023-03-14T10:15:54;19.20;51.80
22714;DHT22;11524;50.846;4.326;2023-03-14T10:18:22;19.20;51.70
22714;DHT22;11524;50.846;4.326;2023-03-14T10:20:49;19.20;51.70
22714;DHT22;11524;50.846;4.326;2023-03-14T10:23:28;19.30;51.50
22714;DHT22;11524;50.846;4.326;2023-03-14T10:26:16;19.20;51.40
22714;DHT22;11524;50.846;4.326;2023-03-14T10:28:47;19.10;51.40
22714;DHT22;11524;50.846;4.326;2023-03-14T10:31:14;19.10;51.40
22714;DHT22;11524;50.846;4.326;2023-03-14T10:33:41;19.10;51.60
22714;DHT22;11524;50.846;4.326;2023-03-14T10:36:23;19.20;51.50
22714;DHT22;11524;50.846;4.326;2023-03-14T10:41:47;19.10;51.30
22714;DHT22;11524;50.846;4.326;2023-03-14T10:44:14;19.10;51.30
22714;DHT22;11524;50.846;4.326;2023-03-14T10:46:41;19.10;51.30
22714;DHT22;11524;50.846;4.326;2023-03-14T10:49:07;19.10;51.50
22714;DHT22;11524;50.846;4.326;2023-03-14T10:51:33;19.10;51.30
22714;DHT22;11524;50.846;4.326;2023-03-14T10:54:12;19.10;51.20
22714;DHT22;11524;50.846;4.326;2023-03-14T10:56:38;19.10;51.40
22714;DHT22;11524;50.846;4.326;2023-03-14T10:59:11;19.10;51.30
22714;DHT22;11524;50.846;4.326;2023-03-14T11:01:47;19.10;51.40
22714;DHT22;11524;50.846;4.326;2023-03-14T11:04:50;19.10;51.50
22714;DHT22;11524;50.846;4.326;2023-03-14T11:07:37;19.10;51.20
22714;DHT22;11524;50.846;4.326;2023-03-14T11:15:35;19.10;51.30
22714;DHT22;11524;50.846;4.326;2023-03-14T11:21:14;19.10;51.30
22714;DHT22;11524;50.846;4.326;2023-03-14T11:29:36;19.00;50.80
22714;DHT22;11524;50.846;4.326;2023-03-14T11:32:13;19.00;50.70
22714;DHT22;11524;50.846;4.326;2023-03-14T11:34:52;19.00;50.60
22714;DHT22;11524;50.846;4.326;2023-03-14T11:37:33;19.00;51.50
22714;DHT22;11524;50.846;4.326;2023-03-14T11:40:42;19.00;50.90
22714;DHT22;11524;50.846;4.326;2023-03-14T11:46:08;19.00;50.70
22714;DHT22;11524;50.846;4.326;2023-03-14T11:51:17;19.00;50.80
22714;DHT22;11524;50.846;4.326;2023-03-14T11:53:47;19.00;50.90
22714;DHT22;11524;50.846;4.326;2023-03-14T11:56:32;18.90;50.60
22714;DHT22;11524;50.846;4.326;2023-03-14T12:02:04;19.00;50.60
22714;DHT22;11524;50.846;4.326;2023-03-14T12:04:39;19.10;50.60
22714;DHT22;11524;50.846;4.326;2023-03-14T12:07:20;19.00;50.90
22714;DHT22;11524;50.846;4.326;2023-03-14T12:09:47;19.00;50.70
22714;DHT22;11524;50.846;4.326;2023-03-14T12:12:19;19.00;50.50
22714;DHT22;11524;50.846;4.326;2023-03-14T12:14:57;19.00;50.60
22714;DHT22;11524;50.846;4.326;2023-03-14T12:17:40;18.90;50.40
22714;DHT22;11524;50.846;4.326;2023-03-14T12:20:18;19.00;50.80
22714;DHT22;11524;50.846;4.326;2023-03-14T12:22:45;19.00;49.30
22714;DHT22;11524;50.846;4.326;2023-03-14T12:25:26;19.00;50.30
22714;DHT22;11524;50.846;4.326;2023-03-14T12:30:39;19.00;50.60
22714;DHT22;11524;50.846;4.326;2023-03-14T12:36:00;18.90;50.40
22714;DHT22;11524;50.846;4.326;2023-03-14T12:43:47;18.90;50.40
22714;DHT22;11524;50.846;4.326;2023-03-14T12:46:22;18.90;50.40
22714;DHT22;11524;50.846;4.326;2023-03-14T12:51:35;18.80;50.50
22714;DHT22;11524;50.846;4.326;2023-03-14T12:54:11;18.80;50.60
22714;DHT22;11524;50.846;4.326;2023-03-14T12:57:06;18.80;50.60
22714;DHT22;11524;50.846;4.326;2023-03-14T12:59:37;18.80;50.40
22714;DHT22;11524;50.846;4.326;2023-03-14T13:10:38;18.80;50.50
22714;DHT22;11524;50.846;4.326;2023-03-14T13:13:23;18.80;50.50
22714;DHT22;11524;50.846;4.326;2023-03-14T13:15:55;18.80;50.60
22714;DHT22;11524;50.846;4.326;2023-03-14T13:21:07;18.80;50.80
22714;DHT22;11524;50.846;4.326;2023-03-14T13:23:37;18.80;50.50
22714;DHT22;11524;50.846;4.326;2023-03-14T13:26:03;18.80;50.70
22714;DHT22;11524;50.846;4.326;2023-03-14T13:28:35;18.80;50.90
22714;DHT22;11524;50.846;4.326;2023-03-14T13:31:02;18.80;51.00
22714;DHT22;11524;50.846;4.326;2023-03-14T13:33:28;18.80;50.70
22714;DHT22;11524;50.846;4.326;2023-03-14T13:35:59;18.70;50.50
22714;DHT22;11524;50.846;4.326;2023-03-14T13:38:27;18.80;50.40
22714;DHT22;11524;50.846;4.326;2023-03-14T13:41:00;18.80;50.50
22714;DHT22;11524;50.846;4.326;2023-03-14T13:43:36;18.80;50.50
22714;DHT22;11524;50.846;4.326;2023-03-14T13:46:13;18.70;50.30
22714;DHT22;11524;50.846;4.326;2023-03-14T13:48:52;18.80;50.20
22714;DHT22;11524;50.846;4.326;2023-03-14T13:51:20;18.70;50.20
22714;DHT22;11524;50.846;4.326;2023-03-14T13:53:54;18.80;50.30
22714;DHT22;11524;50.846;4.326;2023-03-14T13:56:22;18.80;50.30
22714;DHT22;11524;50.846;4.326;2023-03-14T13:58:49;18.70;50.10
22714;DHT22;11524;50.846;4.326;2023-03-14T14:01:32;18.70;50.40
22714;DHT22;11524;50.846;4.326;2023-03-14T14:04:05;18.70;50.10
22714;DHT22;11524;50.846;4.326;2023-03-14T14:06:35;18.80;50.20
22714;DHT22;11524;50.846;4.326;2023-03-14T14:09:12;18.70;50.10
22714;DHT22;11524;50.846;4.326;2023-03-14T14:14:21;18.80;49.80
22714;DHT22;11524;50.846;4.326;2023-03-14T14:16:48;18.80;49.60
22714;DHT22;11524;50.846;4.326;2023-03-14T14:19:16;18.70;49.60
22714;DHT22;11524;50.846;4.326;2023-03-14T14:21:42;18.80;49.40
22714;DHT22;11524;50.846;4.326;2023-03-14T14:24:13;18.80;49.20
22714;DHT22;11524;50.846;4.326;2023-03-14T14:27:08;18.80;48.50
22714;DHT22;11524;50.846;4.326;2023-03-14T14:29:29;18.80;48.50
22714;DHT22;11524;50.846;4.326;2023-03-14T14:37:22;18.80;47.80
22714;DHT22;11524;50.846;4.326;2023-03-14T14:39:50;18.80;47.30
22714;DHT22;11524;50.846;4.326;2023-03-14T14:42:18;18.80;47.40
22714;DHT22;11524;50.846;4.326;2023-03-14T14:44:47;18.70;47.40
22714;DHT22;11524;50.846;4.326;2023-03-14T14:47:18;18.80;47.00
22714;DHT22;11524;50.846;4.326;2023-03-14T14:49:47;18.70;46.70
22714;DHT22;11524;50.846;4.326;2023-03-14T14:52:16;18.70;46.70
22714;DHT22;11524;50.846;4.326;2023-03-14T14:54:45;18.70;45.90
22714;DHT22;11524;50.846;4.326;2023-03-14T14:57:30;18.80;46.30
22714;DHT22;11524;50.846;4.326;2023-03-14T15:00:17;18.70;46.20
22714;DHT22;11524;50.846;4.326;2023-03-14T15:02:48;18.70;46.20
22714;DHT22;11524;50.846;4.326;2023-03-14T15:05:22;18.70;46.10
22714;DHT22;11524;50.846;4.326;2023-03-14T15:07:48;18.70;46.10
22714;DHT22;11524;50.846;4.326;2023-03-14T15:10:20;18.70;45.60
22714;DHT22;11524;50.846;4.326;2023-03-14T15:12:46;18.70;45.60
22714;DHT22;11524;50.846;4.326;2023-03-14T15:15:13;18.70;45.60
22714;DHT22;11524;50.846;4.326;2023-03-14T15:17:39;18.70;45.70
22714;DHT22;11524;50.846;4.326;2023-03-14T15:20:10;18.70;45.90
22714;DHT22;11524;50.846;4.326;2023-03-14T15:22:39;18.70;46.10
22714;DHT22;11524;50.846;4.326;2023-03-14T15:25:05;18.80;46.00
22714;DHT22;11524;50.846;4.326;2023-03-14T15:27:32;18.70;46.00
22714;DHT22;11524;50.846;4.326;2023-03-14T15:29:58;18.70;46.20
22714;DHT22;11524;50.846;4.326;2023-03-14T15:32:27;18.80;46.20
22714;DHT22;11524;50.846;4.326;2023-03-14T15:34:56;18.70;46.10
22714;DHT22;11524;50.846;4.326;2023-03-14T15:37:22;18.70;46.40
22714;DHT22;11524;50.846;4.326;2023-03-14T15:39:48;18.70;46.20
22714;DHT22;11524;50.846;4.326;2023-03-14T15:42:13;18.70;46.20
22714;DHT22;11524;50.846;4.326;2023-03-14T15:44:39;18.70;46.00
22714;DHT22;11524;50.846;4.326;2023-03-14T15:47:05;18.70;46.20
22714;DHT22;11524;50.846;4.326;2023-03-14T15:49:31;18.70;46.40
22714;DHT22;11524;50.846;4.326;2023-03-14T15:51:57;18.70;46.20
22714;DHT22;11524;50.846;4.326;2023-03-14T15:54:23;18.70;46.60
22714;DHT22;11524;50.846;4.326;2023-03-14T15:56:49;18.70;46.30
22714;DHT22;11524;50.846;4.326;2023-03-14T15:59:14;18.70;46.70
22714;DHT22;11524;50.846;4.326;2023-03-14T16:01:40;18.80;46.60
22714;DHT22;11524;50.846;4.326;2023-03-14T16:04:05;18.70;46.40
22714;DHT22;11524;50.846;4.326;2023-03-14T16:06:31;18.70;46.30
22714;DHT22;11524;50.846;4.326;2023-03-14T16:08:57;18.70;46.30
22714;DHT22;11524;50.846;4.326;2023-03-14T16:11:23;18.70;46.20
22714;DHT22;11524;50.846;4.326;2023-03-14T16:13:49;18.70;46.30
22714;DHT22;11524;50.846;4.326;2023-03-14T16:16:15;18.70;46.60
22714;DHT22;11524;50.846;4.326;2023-03-14T16:18:41;18.70;46.40
22714;DHT22;11524;50.846;4.326;2023-03-14T16:21:12;18.70;46.40
22714;DHT22;11524;50.846;4.326;2023-03-14T16:23:38;18.70;46.20
22714;DHT22;11524;50.846;4.326;2023-03-14T16:26:06;18.70;46.70
22714;DHT22;11524;50.846;4.326;2023-03-14T16:28:33;18.60;46.40
22714;DHT22;11524;50.846;4.326;2023-03-14T16:31:03;18.60;46.10
22714;DHT22;11524;50.846;4.326;2023-03-14T16:33:30;18.60;45.90
22714;DHT22;11524;50.846;4.326;2023-03-14T16:35:57;18.60;46.10
22714;DHT22;11524;50.846;4.326;2023-03-14T16:38:26;18.60;46.20
22714;DHT22;11524;50.846;4.326;2023-03-14T16:41:13;18.60;46.70
22714;DHT22;11524;50.846;4.326;2023-03-14T16:43:40;18.60;46.20
22714;DHT22;11524;50.846;4.326;2023-03-14T16:46:07;18.60;46.50
22714;DHT22;11524;50.846;4.326;2023-03-14T16:48:35;18.60;46.30